createdAt,value
2022-07-29T00:00:01.677Z,54.69
2022-07-29T00:02:29.033Z,61.14
2022-07-29T00:04:56.175Z,73.71
2022-07-29T00:07:23.088Z,69.44
2022-07-29T00:09:52.644Z,72.59
2022-07-29T00:12:25.592Z,74.80
2022-07-29T00:14:54.273Z,77.25
2022-07-29T00:17:21.309Z,76.48
2022-07-29T00:19:48.313Z,76.88
2022-07-29T00:22:15.258Z,78.76
2022-07-29T00:24:42.450Z,82.78
2022-07-29T00:27:10.713Z,83.63
2022-07-29T00:29:37.626Z,86.39
2022-07-29T00:32:04.893Z,88.51
2022-07-29T00:35:10.737Z,89.94
2022-07-29T00:37:37.910Z,91.10
2022-07-29T00:40:05.702Z,92.32
2022-07-29T00:42:43.091Z,94.26
2022-07-29T00:45:10.797Z,98.93
2022-07-29T00:47:37.802Z,99.94
2022-07-29T00:50:06.764Z,100.00
2022-07-29T00:52:34.801Z,96.05
2022-07-29T00:55:08.036Z,99.81
2022-07-29T00:57:37.168Z,100.00
2022-07-29T01:00:09.863Z,99.77
2022-07-29T01:02:37.211Z,100.00
2022-07-29T01:05:06.226Z,100.00
2022-07-29T01:07:34.972Z,100.00
2022-07-29T01:10:03.343Z,100.00
2022-07-29T01:12:35.181Z,100.00
2022-07-29T01:15:07.336Z,100.00
2022-07-29T01:17:39.765Z,100.00
2022-07-29T01:20:31.751Z,100.00
2022-07-29T01:23:22.060Z,100.00
2022-07-29T01:26:32.534Z,100.00
2022-07-29T01:29:13.898Z,100.00
2022-07-29T01:31:59.444Z,100.00
2022-07-29T01:34:36.381Z,100.00
2022-07-29T01:37:10.927Z,100.00
2022-07-29T01:39:39.878Z,100.00
2022-07-29T01:42:13.910Z,100.00
2022-07-29T01:44:49.400Z,100.00
2022-07-29T01:47:21.753Z,100.00
2022-07-29T01:49:52.591Z,100.00
2022-07-29T01:52:24.587Z,100.00
2022-07-29T01:54:56.914Z,100.00
2022-07-29T01:57:29.101Z,100.00
2022-07-29T02:00:00.454Z,100.00
2022-07-29T02:02:29.523Z,100.00
2022-07-29T02:04:58.319Z,100.00
2022-07-29T02:07:29.458Z,100.00
2022-07-29T02:09:58.444Z,100.00
2022-07-29T02:12:26.698Z,100.00
2022-07-29T02:14:55.567Z,100.00
2022-07-29T02:17:27.717Z,100.00
2022-07-29T02:19:59.207Z,100.00
2022-07-29T02:22:28.025Z,100.00
2022-07-29T02:24:56.720Z,100.00
2022-07-29T02:27:24.891Z,100.00
2022-07-29T02:29:54.227Z,100.00
2022-07-29T02:32:25.697Z,100.00
2022-07-29T02:34:53.804Z,100.00
2022-07-29T02:37:22.239Z,100.00
2022-07-29T02:39:52.802Z,100.00
2022-07-29T02:42:22.092Z,100.00
2022-07-29T02:44:49.491Z,100.00
2022-07-29T02:47:21.791Z,100.00
2022-07-29T02:49:59.029Z,100.00
2022-07-29T02:52:32.847Z,100.00
2022-07-29T02:55:03.247Z,100.00
2022-07-29T02:57:35.180Z,100.00
2022-07-29T03:00:09.114Z,100.00
2022-07-29T03:02:39.442Z,100.00
2022-07-29T03:05:10.586Z,100.00
2022-07-29T03:07:39.662Z,100.00
2022-07-29T03:10:11.037Z,100.00
2022-07-29T03:12:42.499Z,100.00
2022-07-29T03:15:10.680Z,100.00
2022-07-29T03:17:39.001Z,100.00
2022-07-29T03:20:08.712Z,100.00
2022-07-29T03:22:44.489Z,100.00
2022-07-29T03:25:12.581Z,100.00
2022-07-29T03:27:39.574Z,100.00
2022-07-29T03:30:08.839Z,100.00
2022-07-29T03:32:36.597Z,100.00
2022-07-29T03:35:04.794Z,100.00
2022-07-29T03:37:34.530Z,100.00
2022-07-29T03:40:04.248Z,100.00
2022-07-29T03:42:34.315Z,100.00
2022-07-29T03:45:06.556Z,100.00
2022-07-29T03:47:43.581Z,100.00
2022-07-29T03:50:20.564Z,100.00
2022-07-29T03:52:49.340Z,100.00
2022-07-29T03:55:16.931Z,100.00
2022-07-29T03:57:46.729Z,100.00
2022-07-29T04:00:14.615Z,100.00
2022-07-29T04:02:42.197Z,100.00
2022-07-29T04:05:13.593Z,100.00
2022-07-29T04:07:40.646Z,100.00
2022-07-29T04:10:10.007Z,100.00
2022-07-29T04:12:37.054Z,100.00
2022-07-29T04:15:04.104Z,100.00
2022-07-29T04:17:31.268Z,100.00
2022-07-29T04:19:58.245Z,100.00
2022-07-29T04:22:25.296Z,100.00
2022-07-29T04:24:54.352Z,100.00
2022-07-29T04:27:22.813Z,100.00
2022-07-29T04:29:57.138Z,100.00
2022-07-29T04:32:24.845Z,100.00
2022-07-29T04:34:51.991Z,100.00
2022-07-29T04:37:18.900Z,100.00
2022-07-29T04:39:45.803Z,100.00
2022-07-29T04:42:12.700Z,100.00
2022-07-29T04:44:43.100Z,100.00
2022-07-29T04:47:10.513Z,100.00
2022-07-29T04:49:39.299Z,100.00
2022-07-29T04:52:07.096Z,100.00
2022-07-29T04:54:34.529Z,100.00
2022-07-29T04:57:01.683Z,100.00
2022-07-29T04:59:28.631Z,100.00
2022-07-29T05:01:57.067Z,100.00
2022-07-29T05:04:24.183Z,100.00
2022-07-29T05:06:51.195Z,100.00
2022-07-29T05:09:18.253Z,100.00
2022-07-29T05:11:45.221Z,100.00
2022-07-29T05:14:12.245Z,100.00
2022-07-29T05:16:41.150Z,100.00
2022-07-29T05:19:13.990Z,100.00
2022-07-29T05:21:41.454Z,100.00
2022-07-29T05:24:09.126Z,100.00
2022-07-29T05:26:36.258Z,100.00
2022-07-29T05:29:03.794Z,100.00
2022-07-29T05:31:30.821Z,100.00
2022-07-29T05:33:57.977Z,100.00
2022-07-29T05:36:26.708Z,100.00
2022-07-29T05:38:53.992Z,100.00
2022-07-29T05:41:21.192Z,100.00
2022-07-29T05:43:48.200Z,100.00
2022-07-29T05:46:15.350Z,100.00
2022-07-29T05:48:42.419Z,100.00
2022-07-29T05:51:09.601Z,100.00
2022-07-29T05:53:38.299Z,100.00
2022-07-29T05:56:06.514Z,100.00
2022-07-29T05:58:33.734Z,100.00
2022-07-29T06:01:01.653Z,100.00
2022-07-29T06:03:29.211Z,100.00
2022-07-29T06:05:56.371Z,100.00
2022-07-29T06:08:23.399Z,100.00
2022-07-29T06:10:51.793Z,100.00
2022-07-29T06:13:18.838Z,99.38
2022-07-29T06:15:45.964Z,100.00
2022-07-29T06:18:14.505Z,100.00
2022-07-29T06:20:41.674Z,95.93
2022-07-29T06:23:08.768Z,91.35
2022-07-29T06:25:37.873Z,94.50
2022-07-29T06:28:07.539Z,93.30
2022-07-29T06:30:34.770Z,92.38
2022-07-29T06:33:03.098Z,88.90
2022-07-29T06:35:39.671Z,88.74
2022-07-29T06:38:25.643Z,86.66
2022-07-29T06:41:07.106Z,86.61
2022-07-29T06:43:42.643Z,86.79
2022-07-29T06:46:21.586Z,85.79
2022-07-29T06:48:49.038Z,85.87
2022-07-29T06:51:17.464Z,91.58
2022-07-29T06:53:59.526Z,87.31
2022-07-29T06:56:30.364Z,84.07
2022-07-29T06:58:58.913Z,81.64
2022-07-29T07:01:26.032Z,81.09
2022-07-29T07:03:53.210Z,82.24
2022-07-29T07:06:20.868Z,83.44
2022-07-29T07:08:47.890Z,79.86
2022-07-29T07:11:14.952Z,83.07
2022-07-29T07:13:42.815Z,79.50
2022-07-29T07:16:11.376Z,78.73
2022-07-29T07:18:38.580Z,80.00
2022-07-29T07:21:06.740Z,76.68
2022-07-29T07:23:34.085Z,73.23
2022-07-29T07:26:01.120Z,71.72
2022-07-29T07:28:28.253Z,70.32
2022-07-29T07:30:55.730Z,69.03
2022-07-29T07:33:26.362Z,70.69
2022-07-29T07:35:53.700Z,71.42
2022-07-29T07:38:21.184Z,71.87
2022-07-29T07:40:48.581Z,67.30
2022-07-29T07:43:15.771Z,66.66
2022-07-29T07:45:43.110Z,67.17
2022-07-29T07:48:11.308Z,66.22
2022-07-29T07:50:40.252Z,66.49
2022-07-29T07:53:07.524Z,65.80
2022-07-29T07:55:53.430Z,67.76
2022-07-29T07:58:22.259Z,69.95
2022-07-29T08:00:49.551Z,67.59
2022-07-29T08:03:17.358Z,66.99
2022-07-29T08:05:48.587Z,67.61
2022-07-29T08:08:15.735Z,66.02
2022-07-29T08:10:56.844Z,67.74
2022-07-29T08:13:26.446Z,69.16
2022-07-29T08:16:00.892Z,67.10
2022-07-29T08:18:29.246Z,64.86
2022-07-29T08:20:58.545Z,62.95
2022-07-29T08:23:32.831Z,62.27
2022-07-29T08:26:14.231Z,63.18
2022-07-29T08:28:46.677Z,63.55
2022-07-29T08:31:14.927Z,65.53
2022-07-29T08:33:42.417Z,61.67
2022-07-29T08:36:11.442Z,61.22
2022-07-29T08:38:38.878Z,62.51
2022-07-29T08:41:06.175Z,61.03
2022-07-29T08:43:36.228Z,61.08
2022-07-29T08:46:03.356Z,60.60
2022-07-29T08:48:30.979Z,59.01
2022-07-29T08:50:58.794Z,61.53
2022-07-29T08:53:29.538Z,61.01
2022-07-29T08:55:57.149Z,57.24
2022-07-29T08:58:25.957Z,57.22
2022-07-29T09:00:56.162Z,58.09
2022-07-29T09:03:26.251Z,57.74
2022-07-29T09:05:54.293Z,55.38
2022-07-29T09:08:22.187Z,55.98
2022-07-29T09:11:29.698Z,56.83
2022-07-29T09:13:58.410Z,55.22
2022-07-29T09:16:44.070Z,53.88
2022-07-29T09:19:22.080Z,54.10
2022-07-29T09:22:03.126Z,53.81
2022-07-29T09:24:42.655Z,48.96
2022-07-29T09:27:21.120Z,54.65
2022-07-29T09:29:57.429Z,51.30
2022-07-29T09:32:25.077Z,51.45
2022-07-29T09:34:56.837Z,50.19
2022-07-29T09:37:29.573Z,49.72
2022-07-29T09:39:56.789Z,49.90
2022-07-29T09:42:29.896Z,50.96
2022-07-29T09:44:58.531Z,48.29
2022-07-29T09:47:42.815Z,49.03
2022-07-29T09:50:09.877Z,50.85
2022-07-29T09:52:48.020Z,53.12
2022-07-29T09:55:18.174Z,48.49
2022-07-29T09:57:46.292Z,46.01
2022-07-29T10:00:16.906Z,45.17
2022-07-29T10:02:45.783Z,45.77
2022-07-29T10:05:22.620Z,44.12
2022-07-29T10:07:53.892Z,45.24
2022-07-29T10:10:27.714Z,100.00
2022-07-29T10:12:59.735Z,45.24
2022-07-29T10:15:33.354Z,45.88
2022-07-29T10:18:01.489Z,47.18
2022-07-29T10:20:30.615Z,44.66
2022-07-29T10:22:58.277Z,45.20
2022-07-29T10:25:26.185Z,46.52
2022-07-29T10:27:54.671Z,44.87
2022-07-29T10:30:25.164Z,43.57
2022-07-29T10:33:23.566Z,43.98
2022-07-29T10:36:04.317Z,43.31
2022-07-29T10:38:50.223Z,45.11
2022-07-29T10:44:29.173Z,43.70
2022-07-29T10:46:56.882Z,41.31
2022-07-29T10:49:28.090Z,40.98
2022-07-29T10:52:05.825Z,42.67
2022-07-29T10:54:44.689Z,41.86
2022-07-29T10:57:14.622Z,41.55
2022-07-29T10:59:43.001Z,43.54
2022-07-29T11:02:44.750Z,40.41
2022-07-29T11:05:15.888Z,41.35
2022-07-29T11:08:26.486Z,42.22
2022-07-29T11:11:37.905Z,42.05
2022-07-29T11:14:05.396Z,39.79
2022-07-29T11:17:06.115Z,39.73
2022-07-29T11:19:34.841Z,41.99
2022-07-29T11:22:08.821Z,40.20
2022-07-29T11:24:37.115Z,40.24
2022-07-29T11:30:04.975Z,42.07
2022-07-29T11:32:37.933Z,42.09
2022-07-29T11:35:19.333Z,42.38
2022-07-29T11:38:28.804Z,43.78
2022-07-29T11:41:25.520Z,43.08
2022-07-29T11:43:56.737Z,41.77
2022-07-29T11:46:54.097Z,39.29
2022-07-29T11:49:32.197Z,40.30
2022-07-29T11:52:03.156Z,39.86
2022-07-29T11:54:38.717Z,40.55
2022-07-29T11:57:22.483Z,43.04
2022-07-29T11:59:50.791Z,41.66
2022-07-29T12:02:36.507Z,41.22
2022-07-29T12:05:10.674Z,41.05
2022-07-29T12:07:03.261Z,41.18
2022-07-29T12:07:41.275Z,42.10
2022-07-29T12:10:20.001Z,41.54
2022-07-29T12:12:57.214Z,39.53
2022-07-29T12:15:45.595Z,40.82
2022-07-29T12:18:15.247Z,40.31
2022-07-29T12:20:42.548Z,39.31
2022-07-29T12:23:16.232Z,38.18
2022-07-29T12:25:49.713Z,38.69
2022-07-29T12:28:27.649Z,37.44
2022-07-29T12:30:55.163Z,37.77
2022-07-29T12:33:24.113Z,37.95
2022-07-29T12:36:06.251Z,37.38
2022-07-29T12:38:35.799Z,37.95
2022-07-29T12:41:04.891Z,37.32
2022-07-29T12:43:32.854Z,37.68
2022-07-29T12:46:13.590Z,37.53
2022-07-29T12:48:42.280Z,35.82
2022-07-29T12:51:11.136Z,36.06
2022-07-29T12:53:38.960Z,36.25
2022-07-29T12:56:40.590Z,36.38
2022-07-29T12:59:14.455Z,38.43
2022-07-29T13:01:41.590Z,39.26
2022-07-29T13:04:08.664Z,40.48
2022-07-29T13:06:39.201Z,40.04
2022-07-29T13:09:11.730Z,41.56
2022-07-29T13:11:47.913Z,42.53
2022-07-29T13:14:30.771Z,41.98
2022-07-29T13:17:06.307Z,42.63
2022-07-29T13:19:35.891Z,42.72
2022-07-29T13:22:03.000Z,43.71
2022-07-29T13:24:30.145Z,42.87
2022-07-29T13:26:58.669Z,42.92
2022-07-29T13:29:31.340Z,43.64
2022-07-29T13:31:59.485Z,44.87
2022-07-29T13:34:27.134Z,44.71
2022-07-29T13:36:55.390Z,45.55
2022-07-29T13:39:22.555Z,46.71
2022-07-29T13:41:49.611Z,48.56
2022-07-29T13:44:19.577Z,47.93
2022-07-29T13:46:46.586Z,49.50
2022-07-29T13:49:14.227Z,50.09
2022-07-29T13:51:42.313Z,47.52
2022-07-29T13:54:09.243Z,47.22
2022-07-29T13:56:36.352Z,46.70
2022-07-29T13:59:03.314Z,48.94
2022-07-29T14:01:32.018Z,52.54
2022-07-29T14:03:59.758Z,53.76
2022-07-29T14:06:28.158Z,56.54
2022-07-29T14:08:57.157Z,55.99
2022-07-29T14:11:24.522Z,62.06
2022-07-29T14:13:52.320Z,69.13
2022-07-29T14:16:19.584Z,100.00
2022-07-29T14:18:48.363Z,76.48
2022-07-29T14:21:16.174Z,76.91
2022-07-29T14:23:43.835Z,76.91
2022-07-29T14:26:20.822Z,72.39
2022-07-29T14:28:49.297Z,100.00
2022-07-29T14:31:16.784Z,76.07
2022-07-29T14:33:44.091Z,76.07
2022-07-29T14:36:15.483Z,81.00
2022-07-29T14:38:42.770Z,83.21
2022-07-29T14:41:09.904Z,83.89
2022-07-29T14:43:38.001Z,84.06
2022-07-29T14:46:08.564Z,84.87
2022-07-29T14:48:37.277Z,85.21
2022-07-29T14:51:05.903Z,86.15
2022-07-29T14:53:35.395Z,85.83
2022-07-29T14:56:21.174Z,86.75
2022-07-29T14:58:52.142Z,85.60
2022-07-29T15:01:20.691Z,86.00
2022-07-29T15:03:48.601Z,100.00
2022-07-29T15:06:16.271Z,100.00
2022-07-29T15:08:45.062Z,100.00
2022-07-29T15:11:12.264Z,100.00
2022-07-29T15:13:40.086Z,100.00
2022-07-29T15:16:09.751Z,100.00
2022-07-29T15:18:39.932Z,100.00
2022-07-29T15:21:08.817Z,100.00
2022-07-29T15:23:37.486Z,100.00
2022-07-29T15:26:06.827Z,100.00
2022-07-29T15:28:34.624Z,100.00
2022-07-29T15:31:02.496Z,100.00
2022-07-29T15:33:29.976Z,100.00
2022-07-29T15:35:58.047Z,100.00
2022-07-29T15:38:29.008Z,100.00
2022-07-29T15:40:56.447Z,100.00
2022-07-29T15:43:25.242Z,100.00
2022-07-29T15:46:12.447Z,100.00
2022-07-29T15:48:41.038Z,100.00
2022-07-29T15:51:08.629Z,100.00
2022-07-29T15:53:35.849Z,100.00
2022-07-29T15:56:03.291Z,100.00
2022-07-29T15:58:32.918Z,100.00
2022-07-29T16:01:00.379Z,100.00
2022-07-29T16:03:28.156Z,100.00
2022-07-29T16:05:55.390Z,100.00
2022-07-29T16:08:22.844Z,100.00
2022-07-29T16:10:50.327Z,100.00
2022-07-29T16:13:18.859Z,100.00
2022-07-29T16:16:02.784Z,100.00
2022-07-29T16:18:30.730Z,100.00
2022-07-29T16:20:58.556Z,100.00
2022-07-29T16:23:25.824Z,100.00
2022-07-29T16:26:01.278Z,100.00
2022-07-29T16:28:29.383Z,100.00
2022-07-29T16:30:58.041Z,100.00
2022-07-29T16:33:25.412Z,100.00
2022-07-29T16:35:53.259Z,100.00
2022-07-29T16:38:21.259Z,100.00
2022-07-29T16:40:49.373Z,100.00
2022-07-29T16:43:17.127Z,100.00
2022-07-29T16:45:46.418Z,100.00
2022-07-29T16:48:18.069Z,100.00
2022-07-29T16:50:46.425Z,100.00
2022-07-29T16:53:14.410Z,100.00
2022-07-29T16:55:42.792Z,100.00
2022-07-29T16:58:10.616Z,100.00
2022-07-29T17:00:39.252Z,100.00
2022-07-29T17:03:07.908Z,100.00
2022-07-29T17:05:52.077Z,100.00
2022-07-29T17:08:22.919Z,100.00
2022-07-29T17:10:50.140Z,100.00
2022-07-29T17:13:17.158Z,100.00
2022-07-29T17:15:44.297Z,100.00
2022-07-29T17:18:12.347Z,100.00
2022-07-29T17:20:41.774Z,100.00
2022-07-29T17:23:09.143Z,100.00
2022-07-29T17:25:36.508Z,100.00
2022-07-29T17:28:03.822Z,100.00
2022-07-29T17:30:30.984Z,100.00
2022-07-29T17:32:58.112Z,100.00
2022-07-29T17:35:43.817Z,100.00
2022-07-29T17:38:12.347Z,100.00
2022-07-29T17:40:39.525Z,100.00
2022-07-29T17:43:09.270Z,100.00
2022-07-29T17:45:49.643Z,100.00
2022-07-29T17:48:18.060Z,100.00
2022-07-29T17:50:46.287Z,100.00
2022-07-29T17:53:16.882Z,100.00
2022-07-29T17:55:45.494Z,100.00
2022-07-29T17:58:12.871Z,100.00
2022-07-29T18:00:40.156Z,100.00
2022-07-29T18:03:07.387Z,100.00
2022-07-29T18:05:35.095Z,100.00
2022-07-29T18:08:02.272Z,100.00
2022-07-29T18:10:30.822Z,100.00
2022-07-29T18:12:58.007Z,100.00
2022-07-29T18:15:25.151Z,100.00
2022-07-29T18:17:57.362Z,100.00
2022-07-29T18:20:25.307Z,100.00
2022-07-29T18:22:52.817Z,100.00
2022-07-29T18:25:19.993Z,100.00
2022-07-29T18:27:48.327Z,100.00
2022-07-29T18:30:15.597Z,100.00
2022-07-29T18:32:59.078Z,100.00
2022-07-29T18:35:30.913Z,100.00
2022-07-29T18:38:01.346Z,100.00
2022-07-29T18:40:29.917Z,100.00
2022-07-29T18:42:58.405Z,100.00
2022-07-29T18:45:28.310Z,100.00
2022-07-29T18:47:55.818Z,100.00
2022-07-29T18:50:28.871Z,100.00
2022-07-29T18:52:58.517Z,100.00
2022-07-29T18:55:26.339Z,100.00
2022-07-29T18:57:55.997Z,100.00
2022-07-29T19:00:27.102Z,100.00
2022-07-29T19:02:54.355Z,100.00
2022-07-29T19:05:23.108Z,100.00
2022-07-29T19:07:50.395Z,100.00
2022-07-29T19:10:17.810Z,100.00
2022-07-29T19:12:44.886Z,100.00
2022-07-29T19:15:12.088Z,100.00
2022-07-29T19:17:41.151Z,100.00
2022-07-29T19:20:08.916Z,100.00
2022-07-29T19:22:36.043Z,100.00
2022-07-29T19:25:03.468Z,100.00
2022-07-29T19:27:30.619Z,100.00
2022-07-29T19:29:59.473Z,100.00
2022-07-29T19:32:26.844Z,100.00
2022-07-29T19:35:15.575Z,100.00
2022-07-29T19:37:43.052Z,100.00
2022-07-29T19:40:12.317Z,100.00
2022-07-29T19:42:39.495Z,100.00
2022-07-29T19:45:07.651Z,100.00
2022-07-29T19:47:35.268Z,100.00
2022-07-29T19:50:04.294Z,100.00
2022-07-29T19:52:31.488Z,100.00
2022-07-29T19:54:58.797Z,100.00
2022-07-29T19:57:26.295Z,100.00
2022-07-29T19:59:54.312Z,100.00
2022-07-29T20:02:21.638Z,100.00
2022-07-29T20:04:48.814Z,100.00
2022-07-29T20:07:17.305Z,100.00
2022-07-29T20:09:46.251Z,100.00
2022-07-29T20:12:13.577Z,100.00
2022-07-29T20:14:41.109Z,100.00
2022-07-29T20:17:08.474Z,100.00
2022-07-29T20:19:36.236Z,100.00
2022-07-29T20:22:03.597Z,100.00
2022-07-29T20:24:32.050Z,100.00
2022-07-29T20:26:59.289Z,100.00
2022-07-29T20:29:26.512Z,100.00
2022-07-29T20:31:56.577Z,100.00
2022-07-29T20:34:25.073Z,100.00
2022-07-29T20:36:53.274Z,100.00
2022-07-29T20:39:21.823Z,100.00
2022-07-29T20:41:50.817Z,100.00
2022-07-29T20:44:19.785Z,100.00
2022-07-29T20:46:48.863Z,100.00
2022-07-29T20:49:16.281Z,100.00
2022-07-29T20:51:44.181Z,100.00
2022-07-29T20:54:11.997Z,100.00
2022-07-29T20:56:39.234Z,100.00
2022-07-29T20:59:07.961Z,100.00
2022-07-29T21:01:35.460Z,100.00
2022-07-29T21:04:03.220Z,100.00
2022-07-29T21:06:30.829Z,100.00
2022-07-29T21:08:59.798Z,100.00
2022-07-29T21:11:43.458Z,100.00
2022-07-29T21:14:30.807Z,100.00
2022-07-29T21:17:07.536Z,100.00
2022-07-29T21:19:34.727Z,100.00
2022-07-29T21:22:01.867Z,100.00
2022-07-29T21:24:29.303Z,100.00
2022-07-29T21:27:21.172Z,100.00
2022-07-29T21:29:50.249Z,100.00
2022-07-29T21:32:29.940Z,100.00
2022-07-29T21:34:57.793Z,100.00
2022-07-29T21:37:25.031Z,100.00
2022-07-29T21:39:52.138Z,100.00
2022-07-29T21:42:19.944Z,100.00
2022-07-29T21:44:47.315Z,100.00
2022-07-29T21:47:16.015Z,100.00
2022-07-29T21:49:43.146Z,100.00
2022-07-29T21:52:10.322Z,100.00
2022-07-29T21:54:38.605Z,100.00
2022-07-29T21:57:06.081Z,100.00
2022-07-29T21:59:33.189Z,100.00
2022-07-29T22:02:01.851Z,100.00
2022-07-29T22:04:30.637Z,100.00
2022-07-29T22:06:58.488Z,100.00
2022-07-29T22:09:25.917Z,100.00
2022-07-29T22:11:53.070Z,100.00
2022-07-29T22:14:20.469Z,100.00
2022-07-29T22:16:48.349Z,100.00
2022-07-29T22:19:15.653Z,100.00
2022-07-29T22:21:44.946Z,100.00
2022-07-29T22:24:12.296Z,100.00
2022-07-29T22:26:40.436Z,100.00
2022-07-29T22:29:07.839Z,100.00
2022-07-29T22:31:34.853Z,100.00
2022-07-29T22:34:01.776Z,100.00
2022-07-29T22:36:28.791Z,100.00
2022-07-29T22:38:57.169Z,100.00
2022-07-29T22:41:24.210Z,100.00
2022-07-29T22:43:51.131Z,100.00
2022-07-29T22:46:18.272Z,100.00
2022-07-29T22:48:45.323Z,100.00
2022-07-29T22:51:12.297Z,100.00
2022-07-29T22:53:39.347Z,100.00
2022-07-29T22:56:07.864Z,100.00
2022-07-29T22:58:34.991Z,100.00
2022-07-29T23:01:02.103Z,100.00
2022-07-29T23:03:29.152Z,100.00
2022-07-29T23:05:56.159Z,100.00
2022-07-29T23:08:23.111Z,100.00
2022-07-29T23:10:50.029Z,100.00
2022-07-29T23:13:18.385Z,100.00
2022-07-29T23:15:45.369Z,100.00
2022-07-29T23:18:12.495Z,100.00
2022-07-29T23:20:39.611Z,100.00
2022-07-29T23:23:06.567Z,100.00
2022-07-29T23:25:37.610Z,100.00
2022-07-29T23:28:05.246Z,100.00
2022-07-29T23:30:33.694Z,100.00
2022-07-29T23:33:05.650Z,100.00
2022-07-29T23:35:32.862Z,100.00
2022-07-29T23:38:07.116Z,100.00
2022-07-29T23:40:39.177Z,100.00
2022-07-29T23:43:08.657Z,100.00
2022-07-29T23:45:42.565Z,100.00
2022-07-29T23:48:11.536Z,100.00
2022-07-29T23:50:40.175Z,100.00
2022-07-29T23:53:07.297Z,100.00
2022-07-29T23:55:36.501Z,100.00
2022-07-29T23:58:05.980Z,100.00
